createdAt,value
2023-01-17T00:22:36.550Z,89.61
2023-01-17T00:52:40.147Z,89.79
2023-01-17T01:22:44.698Z,90.06
2023-01-17T01:52:48.280Z,90.29
2023-01-17T02:22:51.201Z,90.71
2023-01-17T02:52:54.410Z,91.56
2023-01-17T03:22:57.386Z,92.03
2023-01-17T03:53:00.776Z,91.89
2023-01-17T04:23:03.767Z,91.44
2023-01-17T04:53:06.693Z,90.73
2023-01-17T05:23:10.391Z,90.40
2023-01-17T05:53:13.562Z,89.28
2023-01-17T06:23:17.252Z,88.67
2023-01-17T06:53:20.217Z,87.96
2023-01-17T07:23:23.561Z,87.68
2023-01-17T07:53:26.405Z,87.69
2023-01-17T08:23:30.168Z,87.15
2023-01-17T08:53:33.038Z,86.53
2023-01-17T09:23:36.799Z,86.92
2023-01-17T09:53:39.627Z,84.83
2023-01-17T10:23:44.363Z,83.49
2023-01-17T10:53:47.291Z,78.13
2023-01-17T11:23:50.275Z,79.16
2023-01-17T11:53:53.773Z,79.20
2023-01-17T12:23:57.327Z,76.49
2023-01-17T12:54:00.156Z,70.99
2023-01-17T13:24:04.164Z,74.23
2023-01-17T13:54:07.026Z,74.34
2023-01-17T14:24:10.598Z,75.79
2023-01-17T14:54:13.477Z,75.55
2023-01-17T15:24:17.157Z,75.20
2023-01-17T15:54:20.176Z,76.42
2023-01-17T16:24:27.594Z,77.66
2023-01-17T16:54:30.539Z,78.00
2023-01-17T17:24:35.088Z,78.01
2023-01-17T17:54:38.143Z,79.09
2023-01-17T18:24:42.236Z,79.59
2023-01-17T18:54:45.157Z,80.43
2023-01-17T19:24:49.625Z,80.99
2023-01-17T19:54:52.520Z,81.68
2023-01-17T20:24:56.638Z,82.30
2023-01-17T20:54:59.551Z,82.65
2023-01-17T21:25:04.535Z,82.46
2023-01-17T21:55:07.851Z,82.46
2023-01-17T22:25:11.828Z,83.35
2023-01-17T22:55:14.983Z,83.65
2023-01-17T23:25:17.927Z,83.90
2023-01-17T23:55:21.575Z,84.50
